sensor_id;sensor_type;location;lat;lon;timestamp;P1;durP1;ratioP1;P2;durP2;ratioP2
69207;SDS011;56321;47.662;8.878;2023-03-14T00:01:37;1.70;;;0.10;;
69207;SDS011;56321;47.662;8.878;2023-03-14T00:04:06;1.73;;;0.10;;
69207;SDS011;56321;47.662;8.878;2023-03-14T00:06:31;2.72;;;0.15;;
69207;SDS011;56321;47.662;8.878;2023-03-14T00:08:58;2.38;;;0.20;;
69207;SDS011;56321;47.662;8.878;2023-03-14T00:11:23;2.40;;;0.10;;
69207;SDS011;56321;47.662;8.878;2023-03-14T00:13:49;2.93;;;0.10;;
69207;SDS011;56321;47.662;8.878;2023-03-14T00:16:15;1.35;;;0.10;;
69207;SDS011;56321;47.662;8.878;2023-03-14T00:18:41;3.40;;;0.10;;
69207;SDS011;56321;47.662;8.878;2023-03-14T00:21:07;2.00;;;0.10;;
69207;SDS011;56321;47.662;8.878;2023-03-14T00:23:34;1.80;;;0.10;;
69207;SDS011;56321;47.662;8.878;2023-03-14T00:26:03;1.30;;;0.10;;
69207;SDS011;56321;47.662;8.878;2023-03-14T00:28:30;1.55;;;0.10;;
69207;SDS011;56321;47.662;8.878;2023-03-14T00:30:56;1.27;;;0.10;;
69207;SDS011;56321;47.662;8.878;2023-03-14T00:33:21;1.70;;;0.20;;
69207;SDS011;56321;47.662;8.878;2023-03-14T00:35:54;0.98;;;0.10;;
69207;SDS011;56321;47.662;8.878;2023-03-14T00:38:27;0.98;;;0.10;;
69207;SDS011;56321;47.662;8.878;2023-03-14T00:40:53;1.40;;;0.10;;
69207;SDS011;56321;47.662;8.878;2023-03-14T00:43:19;0.70;;;0.10;;
69207;SDS011;56321;47.662;8.878;2023-03-14T00:45:51;1.27;;;0.10;;
69207;SDS011;56321;47.662;8.878;2023-03-14T00:48:18;0.75;;;0.10;;
69207;SDS011;56321;47.662;8.878;2023-03-14T00:50:44;1.45;;;0.10;;
69207;SDS011;56321;47.662;8.878;2023-03-14T00:53:10;0.77;;;0.07;;
69207;SDS011;56321;47.662;8.878;2023-03-14T00:55:36;1.55;;;0.10;;
69207;SDS011;56321;47.662;8.878;2023-03-14T00:58:02;1.52;;;0.10;;
69207;SDS011;56321;47.662;8.878;2023-03-14T01:00:28;0.10;;;0.00;;
69207;SDS011;56321;47.662;8.878;2023-03-14T01:02:53;1.57;;;0.00;;
69207;SDS011;56321;47.662;8.878;2023-03-14T01:05:18;1.00;;;0.10;;
69207;SDS011;56321;47.662;8.878;2023-03-14T01:07:44;2.07;;;0.10;;
69207;SDS011;56321;47.662;8.878;2023-03-14T01:10:09;2.03;;;0.10;;
69207;SDS011;56321;47.662;8.878;2023-03-14T01:12:35;2.03;;;0.05;;
69207;SDS011;56321;47.662;8.878;2023-03-14T01:15:00;0.40;;;0.00;;
69207;SDS011;56321;47.662;8.878;2023-03-14T01:17:26;1.00;;;0.00;;
69207;SDS011;56321;47.662;8.878;2023-03-14T01:19:51;0.43;;;0.00;;
69207;SDS011;56321;47.662;8.878;2023-03-14T01:22:16;0.43;;;0.10;;
69207;SDS011;56321;47.662;8.878;2023-03-14T01:24:42;0.97;;;0.00;;
69207;SDS011;56321;47.662;8.878;2023-03-14T01:27:07;0.80;;;0.00;;
69207;SDS011;56321;47.662;8.878;2023-03-14T01:29:32;0.40;;;0.00;;
69207;SDS011;56321;47.662;8.878;2023-03-14T01:31:58;0.63;;;0.00;;
69207;SDS011;56321;47.662;8.878;2023-03-14T01:34:23;1.10;;;0.10;;
69207;SDS011;56321;47.662;8.878;2023-03-14T01:36:48;0.30;;;0.00;;
69207;SDS011;56321;47.662;8.878;2023-03-14T01:39:14;0.57;;;0.00;;
69207;SDS011;56321;47.662;8.878;2023-03-14T01:41:39;0.30;;;0.00;;
69207;SDS011;56321;47.662;8.878;2023-03-14T01:44:08;0.73;;;0.00;;
69207;SDS011;56321;47.662;8.878;2023-03-14T01:46:42;0.22;;;0.00;;
69207;SDS011;56321;47.662;8.878;2023-03-14T01:49:10;0.37;;;0.00;;
69207;SDS011;56321;47.662;8.878;2023-03-14T01:52:18;0.90;;;0.00;;
69207;SDS011;56321;47.662;8.878;2023-03-14T01:54:55;0.10;;;0.00;;
69207;SDS011;56321;47.662;8.878;2023-03-14T01:57:41;0.17;;;0.00;;
69207;SDS011;56321;47.662;8.878;2023-03-14T02:00:15;0.40;;;0.00;;
69207;SDS011;56321;47.662;8.878;2023-03-14T02:02:48;0.20;;;0.00;;
69207;SDS011;56321;47.662;8.878;2023-03-14T02:05:20;0.10;;;0.00;;
69207;SDS011;56321;47.662;8.878;2023-03-14T02:07:58;0.55;;;0.00;;
69207;SDS011;56321;47.662;8.878;2023-03-14T02:10:26;0.68;;;0.00;;
69207;SDS011;56321;47.662;8.878;2023-03-14T02:12:55;2.00;;;0.00;;
69207;SDS011;56321;47.662;8.878;2023-03-14T02:15:22;0.67;;;0.00;;
69207;SDS011;56321;47.662;8.878;2023-03-14T02:17:48;0.52;;;0.00;;
69207;SDS011;56321;47.662;8.878;2023-03-14T02:23:20;0.10;;;0.00;;
69207;SDS011;56321;47.662;8.878;2023-03-14T02:26:12;0.10;;;0.00;;
69207;SDS011;56321;47.662;8.878;2023-03-14T02:28:41;0.40;;;0.00;;
69207;SDS011;56321;47.662;8.878;2023-03-14T02:31:07;0.20;;;0.00;;
69207;SDS011;56321;47.662;8.878;2023-03-14T02:33:33;0.08;;;0.00;;
69207;SDS011;56321;47.662;8.878;2023-03-14T02:36:02;0.22;;;0.03;;
69207;SDS011;56321;47.662;8.878;2023-03-14T02:41:15;0.00;;;0.00;;
69207;SDS011;56321;47.662;8.878;2023-03-14T02:43:41;0.43;;;0.00;;
69207;SDS011;56321;47.662;8.878;2023-03-14T02:46:07;0.10;;;0.00;;
69207;SDS011;56321;47.662;8.878;2023-03-14T02:48:57;0.20;;;0.00;;
69207;SDS011;56321;47.662;8.878;2023-03-14T02:51:28;0.73;;;0.00;;
69207;SDS011;56321;47.662;8.878;2023-03-14T02:53:53;0.10;;;0.00;;
69207;SDS011;56321;47.662;8.878;2023-03-14T02:56:19;0.30;;;0.00;;
69207;SDS011;56321;47.662;8.878;2023-03-14T02:58:44;0.20;;;0.00;;
69207;SDS011;56321;47.662;8.878;2023-03-14T03:01:09;0.10;;;0.00;;
69207;SDS011;56321;47.662;8.878;2023-03-14T03:03:35;0.53;;;0.00;;
69207;SDS011;56321;47.662;8.878;2023-03-14T03:06:00;0.33;;;0.00;;
69207;SDS011;56321;47.662;8.878;2023-03-14T03:08:26;0.10;;;0.00;;
69207;SDS011;56321;47.662;8.878;2023-03-14T03:10:52;0.38;;;0.00;;
69207;SDS011;56321;47.662;8.878;2023-03-14T03:13:18;0.10;;;0.00;;
69207;SDS011;56321;47.662;8.878;2023-03-14T03:15:44;0.33;;;0.00;;
69207;SDS011;56321;47.662;8.878;2023-03-14T03:18:09;0.45;;;0.00;;
69207;SDS011;56321;47.662;8.878;2023-03-14T03:20:35;0.50;;;0.00;;
69207;SDS011;56321;47.662;8.878;2023-03-14T03:23:00;0.30;;;0.00;;
69207;SDS011;56321;47.662;8.878;2023-03-14T03:25:26;0.00;;;0.00;;
69207;SDS011;56321;47.662;8.878;2023-03-14T03:27:51;0.40;;;0.00;;
69207;SDS011;56321;47.662;8.878;2023-03-14T03:30:17;0.30;;;0.00;;
69207;SDS011;56321;47.662;8.878;2023-03-14T03:32:43;0.47;;;0.00;;
69207;SDS011;56321;47.662;8.878;2023-03-14T03:35:08;0.20;;;0.00;;
69207;SDS011;56321;47.662;8.878;2023-03-14T03:37:34;0.20;;;0.00;;
69207;SDS011;56321;47.662;8.878;2023-03-14T03:40:00;1.57;;;0.00;;
69207;SDS011;56321;47.662;8.878;2023-03-14T03:42:28;0.10;;;0.00;;
69207;SDS011;56321;47.662;8.878;2023-03-14T03:44:54;0.10;;;0.00;;
69207;SDS011;56321;47.662;8.878;2023-03-14T03:47:19;0.10;;;0.00;;
69207;SDS011;56321;47.662;8.878;2023-03-14T03:49:44;0.27;;;0.00;;
69207;SDS011;56321;47.662;8.878;2023-03-14T03:52:09;0.30;;;0.00;;
69207;SDS011;56321;47.662;8.878;2023-03-14T03:54:35;0.10;;;0.00;;
69207;SDS011;56321;47.662;8.878;2023-03-14T03:57:01;0.10;;;0.00;;
69207;SDS011;56321;47.662;8.878;2023-03-14T03:59:26;0.87;;;0.00;;
69207;SDS011;56321;47.662;8.878;2023-03-14T04:01:51;0.30;;;0.00;;
69207;SDS011;56321;47.662;8.878;2023-03-14T04:04:17;0.63;;;0.00;;
69207;SDS011;56321;47.662;8.878;2023-03-14T04:06:42;0.83;;;0.00;;
69207;SDS011;56321;47.662;8.878;2023-03-14T04:09:08;0.47;;;0.00;;
69207;SDS011;56321;47.662;8.878;2023-03-14T04:11:34;1.07;;;0.00;;
69207;SDS011;56321;47.662;8.878;2023-03-14T04:14:00;0.13;;;0.00;;
69207;SDS011;56321;47.662;8.878;2023-03-14T04:16:25;0.43;;;0.00;;
69207;SDS011;56321;47.662;8.878;2023-03-14T04:18:51;0.33;;;0.00;;
69207;SDS011;56321;47.662;8.878;2023-03-14T04:21:16;0.17;;;0.00;;
69207;SDS011;56321;47.662;8.878;2023-03-14T04:23:42;0.77;;;0.10;;
69207;SDS011;56321;47.662;8.878;2023-03-14T04:26:07;0.47;;;0.00;;
69207;SDS011;56321;47.662;8.878;2023-03-14T04:28:32;0.20;;;0.00;;
69207;SDS011;56321;47.662;8.878;2023-03-14T04:30:58;0.10;;;0.00;;
69207;SDS011;56321;47.662;8.878;2023-03-14T04:33:24;0.45;;;0.00;;
69207;SDS011;56321;47.662;8.878;2023-03-14T04:35:52;1.10;;;0.00;;
69207;SDS011;56321;47.662;8.878;2023-03-14T04:38:18;0.50;;;0.00;;
69207;SDS011;56321;47.662;8.878;2023-03-14T04:40:44;0.40;;;0.00;;
69207;SDS011;56321;47.662;8.878;2023-03-14T04:43:09;0.60;;;0.00;;
69207;SDS011;56321;47.662;8.878;2023-03-14T04:45:35;1.17;;;0.10;;
69207;SDS011;56321;47.662;8.878;2023-03-14T04:48:01;0.30;;;0.00;;
69207;SDS011;56321;47.662;8.878;2023-03-14T04:50:27;1.00;;;0.00;;
69207;SDS011;56321;47.662;8.878;2023-03-14T04:52:52;1.07;;;0.00;;
69207;SDS011;56321;47.662;8.878;2023-03-14T04:55:17;1.30;;;0.10;;
69207;SDS011;56321;47.662;8.878;2023-03-14T04:57:43;0.40;;;0.00;;
69207;SDS011;56321;47.662;8.878;2023-03-14T05:00:08;1.30;;;0.00;;
69207;SDS011;56321;47.662;8.878;2023-03-14T05:02:34;0.30;;;0.00;;
69207;SDS011;56321;47.662;8.878;2023-03-14T05:05:00;0.90;;;0.00;;
69207;SDS011;56321;47.662;8.878;2023-03-14T05:07:25;0.98;;;0.03;;
69207;SDS011;56321;47.662;8.878;2023-03-14T05:09:51;0.73;;;0.00;;
69207;SDS011;56321;47.662;8.878;2023-03-14T05:12:18;1.23;;;0.00;;
69207;SDS011;56321;47.662;8.878;2023-03-14T05:14:44;0.40;;;0.00;;
69207;SDS011;56321;47.662;8.878;2023-03-14T05:17:09;0.40;;;0.00;;
69207;SDS011;56321;47.662;8.878;2023-03-14T05:19:35;1.03;;;0.00;;
69207;SDS011;56321;47.662;8.878;2023-03-14T05:22:00;1.17;;;0.10;;
69207;SDS011;56321;47.662;8.878;2023-03-14T05:24:26;0.57;;;0.00;;
69207;SDS011;56321;47.662;8.878;2023-03-14T05:26:51;1.07;;;0.00;;
69207;SDS011;56321;47.662;8.878;2023-03-14T05:29:16;0.67;;;0.00;;
69207;SDS011;56321;47.662;8.878;2023-03-14T05:31:42;0.93;;;0.00;;
69207;SDS011;56321;47.662;8.878;2023-03-14T05:34:07;1.33;;;0.10;;
69207;SDS011;56321;47.662;8.878;2023-03-14T05:36:32;1.20;;;0.10;;
69207;SDS011;56321;47.662;8.878;2023-03-14T05:38:57;0.67;;;0.00;;
69207;SDS011;56321;47.662;8.878;2023-03-14T05:41:23;0.40;;;0.00;;
69207;SDS011;56321;47.662;8.878;2023-03-14T05:43:48;0.45;;;0.00;;
69207;SDS011;56321;47.662;8.878;2023-03-14T05:46:13;1.63;;;0.00;;
69207;SDS011;56321;47.662;8.878;2023-03-14T05:48:39;0.83;;;0.00;;
69207;SDS011;56321;47.662;8.878;2023-03-14T05:51:04;0.37;;;0.00;;
69207;SDS011;56321;47.662;8.878;2023-03-14T05:53:30;0.50;;;0.00;;
69207;SDS011;56321;47.662;8.878;2023-03-14T05:55:55;0.80;;;0.07;;
69207;SDS011;56321;47.662;8.878;2023-03-14T05:58:21;1.07;;;0.00;;
69207;SDS011;56321;47.662;8.878;2023-03-14T06:00:47;0.37;;;0.00;;
69207;SDS011;56321;47.662;8.878;2023-03-14T06:03:12;0.40;;;0.00;;
69207;SDS011;56321;47.662;8.878;2023-03-14T06:05:38;0.38;;;0.00;;
69207;SDS011;56321;47.662;8.878;2023-03-14T06:08:03;1.43;;;0.00;;
69207;SDS011;56321;47.662;8.878;2023-03-14T06:10:29;0.73;;;0.10;;
69207;SDS011;56321;47.662;8.878;2023-03-14T06:12:54;2.10;;;0.30;;
69207;SDS011;56321;47.662;8.878;2023-03-14T06:15:19;2.17;;;0.30;;
69207;SDS011;56321;47.662;8.878;2023-03-14T06:17:45;2.03;;;0.30;;
69207;SDS011;56321;47.662;8.878;2023-03-14T06:20:10;2.67;;;0.30;;
69207;SDS011;56321;47.662;8.878;2023-03-14T06:22:36;2.70;;;0.30;;
69207;SDS011;56321;47.662;8.878;2023-03-14T06:25:03;2.28;;;0.30;;
69207;SDS011;56321;47.662;8.878;2023-03-14T06:27:29;1.47;;;0.20;;
69207;SDS011;56321;47.662;8.878;2023-03-14T06:29:54;1.13;;;0.10;;
69207;SDS011;56321;47.662;8.878;2023-03-14T06:32:19;1.25;;;0.10;;
69207;SDS011;56321;47.662;8.878;2023-03-14T06:34:45;0.73;;;0.10;;
69207;SDS011;56321;47.662;8.878;2023-03-14T06:37:11;1.60;;;0.30;;
69207;SDS011;56321;47.662;8.878;2023-03-14T06:39:36;0.75;;;0.10;;
69207;SDS011;56321;47.662;8.878;2023-03-14T06:42:03;0.60;;;0.10;;
69207;SDS011;56321;47.662;8.878;2023-03-14T06:44:28;1.75;;;0.20;;
69207;SDS011;56321;47.662;8.878;2023-03-14T06:46:54;1.13;;;0.10;;
69207;SDS011;56321;47.662;8.878;2023-03-14T06:49:19;1.17;;;0.07;;
69207;SDS011;56321;47.662;8.878;2023-03-14T06:51:45;0.80;;;0.10;;
69207;SDS011;56321;47.662;8.878;2023-03-14T06:54:10;2.10;;;0.20;;
69207;SDS011;56321;47.662;8.878;2023-03-14T06:56:35;0.88;;;0.10;;
69207;SDS011;56321;47.662;8.878;2023-03-14T06:59:01;1.83;;;0.10;;
69207;SDS011;56321;47.662;8.878;2023-03-14T07:01:27;2.70;;;0.10;;
69207;SDS011;56321;47.662;8.878;2023-03-14T07:03:54;1.63;;;0.10;;
69207;SDS011;56321;47.662;8.878;2023-03-14T07:06:20;1.37;;;0.10;;
69207;SDS011;56321;47.662;8.878;2023-03-14T07:08:46;0.98;;;0.10;;
69207;SDS011;56321;47.662;8.878;2023-03-14T07:11:12;1.30;;;0.10;;
69207;SDS011;56321;47.662;8.878;2023-03-14T07:13:38;1.10;;;0.10;;
69207;SDS011;56321;47.662;8.878;2023-03-14T07:16:04;0.82;;;0.10;;
69207;SDS011;56321;47.662;8.878;2023-03-14T07:18:30;1.00;;;0.07;;
69207;SDS011;56321;47.662;8.878;2023-03-14T07:20:56;1.70;;;0.20;;
69207;SDS011;56321;47.662;8.878;2023-03-14T07:23:21;0.70;;;0.00;;
69207;SDS011;56321;47.662;8.878;2023-03-14T07:25:46;1.60;;;0.10;;
69207;SDS011;56321;47.662;8.878;2023-03-14T07:28:12;1.37;;;0.13;;
69207;SDS011;56321;47.662;8.878;2023-03-14T07:30:37;0.90;;;0.10;;
69207;SDS011;56321;47.662;8.878;2023-03-14T07:33:02;0.60;;;0.00;;
69207;SDS011;56321;47.662;8.878;2023-03-14T07:35:28;2.08;;;0.10;;
69207;SDS011;56321;47.662;8.878;2023-03-14T07:37:53;0.27;;;0.00;;
69207;SDS011;56321;47.662;8.878;2023-03-14T07:40:18;1.43;;;0.10;;
69207;SDS011;56321;47.662;8.878;2023-03-14T07:42:44;1.43;;;0.10;;
69207;SDS011;56321;47.662;8.878;2023-03-14T07:45:10;1.53;;;0.10;;
69207;SDS011;56321;47.662;8.878;2023-03-14T07:47:35;0.90;;;0.00;;
69207;SDS011;56321;47.662;8.878;2023-03-14T07:50:02;1.20;;;0.10;;
69207;SDS011;56321;47.662;8.878;2023-03-14T07:52:28;0.97;;;0.10;;
69207;SDS011;56321;47.662;8.878;2023-03-14T07:54:54;0.60;;;0.05;;
69207;SDS011;56321;47.662;8.878;2023-03-14T07:57:19;3.37;;;1.07;;
69207;SDS011;56321;47.662;8.878;2023-03-14T07:59:45;4.00;;;1.30;;
69207;SDS011;56321;47.662;8.878;2023-03-14T08:02:10;2.43;;;0.30;;
69207;SDS011;56321;47.662;8.878;2023-03-14T08:04:37;0.82;;;0.10;;
69207;SDS011;56321;47.662;8.878;2023-03-14T08:07:03;1.92;;;0.30;;
69207;SDS011;56321;47.662;8.878;2023-03-14T08:09:28;1.07;;;0.10;;
69207;SDS011;56321;47.662;8.878;2023-03-14T08:11:54;2.07;;;0.10;;
69207;SDS011;56321;47.662;8.878;2023-03-14T08:14:19;1.87;;;0.10;;
69207;SDS011;56321;47.662;8.878;2023-03-14T08:16:45;0.57;;;0.10;;
69207;SDS011;56321;47.662;8.878;2023-03-14T08:19:10;1.47;;;0.10;;
69207;SDS011;56321;47.662;8.878;2023-03-14T08:21:36;2.20;;;0.17;;
69207;SDS011;56321;47.662;8.878;2023-03-14T08:24:01;0.90;;;0.10;;
69207;SDS011;56321;47.662;8.878;2023-03-14T08:26:27;1.40;;;0.20;;
69207;SDS011;56321;47.662;8.878;2023-03-14T08:28:52;1.53;;;0.10;;
69207;SDS011;56321;47.662;8.878;2023-03-14T08:31:17;0.90;;;0.10;;
69207;SDS011;56321;47.662;8.878;2023-03-14T08:33:43;2.10;;;0.10;;
69207;SDS011;56321;47.662;8.878;2023-03-14T08:36:08;2.13;;;0.25;;
69207;SDS011;56321;47.662;8.878;2023-03-14T08:38:34;1.27;;;0.20;;
69207;SDS011;56321;47.662;8.878;2023-03-14T08:41:00;1.35;;;0.20;;
69207;SDS011;56321;47.662;8.878;2023-03-14T08:43:27;0.97;;;0.20;;
69207;SDS011;56321;47.662;8.878;2023-03-14T08:45:53;0.90;;;0.20;;
69207;SDS011;56321;47.662;8.878;2023-03-14T08:48:23;1.30;;;0.20;;
69207;SDS011;56321;47.662;8.878;2023-03-14T08:50:48;0.90;;;0.20;;
69207;SDS011;56321;47.662;8.878;2023-03-14T08:53:13;1.13;;;0.20;;
69207;SDS011;56321;47.662;8.878;2023-03-14T08:55:39;1.30;;;0.20;;
69207;SDS011;56321;47.662;8.878;2023-03-14T08:58:04;1.23;;;0.10;;
69207;SDS011;56321;47.662;8.878;2023-03-14T09:00:29;2.33;;;0.20;;
69207;SDS011;56321;47.662;8.878;2023-03-14T09:02:55;2.27;;;0.30;;
69207;SDS011;56321;47.662;8.878;2023-03-14T09:05:20;2.50;;;0.30;;
69207;SDS011;56321;47.662;8.878;2023-03-14T09:07:45;1.67;;;0.30;;
69207;SDS011;56321;47.662;8.878;2023-03-14T09:10:11;0.85;;;0.20;;
69207;SDS011;56321;47.662;8.878;2023-03-14T09:12:36;2.10;;;0.27;;
69207;SDS011;56321;47.662;8.878;2023-03-14T09:15:02;0.57;;;0.10;;
69207;SDS011;56321;47.662;8.878;2023-03-14T09:17:28;1.77;;;0.20;;
69207;SDS011;56321;47.662;8.878;2023-03-14T09:19:53;0.93;;;0.10;;
69207;SDS011;56321;47.662;8.878;2023-03-14T09:22:19;2.00;;;0.20;;
69207;SDS011;56321;47.662;8.878;2023-03-14T09:24:45;1.77;;;0.20;;
69207;SDS011;56321;47.662;8.878;2023-03-14T09:27:10;2.47;;;0.30;;
69207;SDS011;56321;47.662;8.878;2023-03-14T09:29:36;2.00;;;0.20;;
69207;SDS011;56321;47.662;8.878;2023-03-14T09:32:01;1.53;;;0.20;;
69207;SDS011;56321;47.662;8.878;2023-03-14T09:34:26;1.73;;;0.20;;
69207;SDS011;56321;47.662;8.878;2023-03-14T09:36:52;1.97;;;0.20;;
69207;SDS011;56321;47.662;8.878;2023-03-14T09:39:17;1.33;;;0.20;;
69207;SDS011;56321;47.662;8.878;2023-03-14T09:41:44;4.60;;;0.63;;
69207;SDS011;56321;47.662;8.878;2023-03-14T09:44:13;3.67;;;0.28;;
69207;SDS011;56321;47.662;8.878;2023-03-14T09:46:42;1.58;;;0.30;;
69207;SDS011;56321;47.662;8.878;2023-03-14T09:49:19;1.27;;;0.10;;
69207;SDS011;56321;47.662;8.878;2023-03-14T09:51:47;0.52;;;0.10;;
69207;SDS011;56321;47.662;8.878;2023-03-14T09:57:14;0.70;;;0.10;;
69207;SDS011;56321;47.662;8.878;2023-03-14T09:59:43;1.33;;;0.10;;
69207;SDS011;56321;47.662;8.878;2023-03-14T10:02:28;1.10;;;0.10;;
69207;SDS011;56321;47.662;8.878;2023-03-14T10:04:58;1.08;;;0.10;;
69207;SDS011;56321;47.662;8.878;2023-03-14T10:07:27;1.07;;;0.10;;
69207;SDS011;56321;47.662;8.878;2023-03-14T10:09:54;1.10;;;0.10;;
69207;SDS011;56321;47.662;8.878;2023-03-14T10:12:21;0.85;;;0.10;;
69207;SDS011;56321;47.662;8.878;2023-03-14T10:14:56;0.60;;;0.10;;
69207;SDS011;56321;47.662;8.878;2023-03-14T10:17:21;0.77;;;0.03;;
69207;SDS011;56321;47.662;8.878;2023-03-14T10:19:56;0.40;;;0.00;;
69207;SDS011;56321;47.662;8.878;2023-03-14T10:22:24;0.57;;;0.10;;
69207;SDS011;56321;47.662;8.878;2023-03-14T10:24:56;0.75;;;0.00;;
69207;SDS011;56321;47.662;8.878;2023-03-14T10:27:29;1.60;;;0.00;;
69207;SDS011;56321;47.662;8.878;2023-03-14T10:30:00;1.20;;;0.00;;
69207;SDS011;56321;47.662;8.878;2023-03-14T10:32:35;0.55;;;0.00;;
69207;SDS011;56321;47.662;8.878;2023-03-14T10:37:32;0.20;;;0.00;;
69207;SDS011;56321;47.662;8.878;2023-03-14T10:40:00;0.70;;;0.10;;
69207;SDS011;56321;47.662;8.878;2023-03-14T10:42:34;0.20;;;0.00;;
69207;SDS011;56321;47.662;8.878;2023-03-14T10:45:05;1.00;;;0.00;;
69207;SDS011;56321;47.662;8.878;2023-03-14T10:47:50;0.15;;;0.00;;
69207;SDS011;56321;47.662;8.878;2023-03-14T10:52:53;0.43;;;0.00;;
69207;SDS011;56321;47.662;8.878;2023-03-14T10:55:19;1.17;;;0.10;;
69207;SDS011;56321;47.662;8.878;2023-03-14T10:57:44;0.10;;;0.00;;
69207;SDS011;56321;47.662;8.878;2023-03-14T11:00:16;1.20;;;0.00;;
69207;SDS011;56321;47.662;8.878;2023-03-14T11:05:31;0.50;;;0.00;;
69207;SDS011;56321;47.662;8.878;2023-03-14T11:17:00;0.10;;;0.00;;
69207;SDS011;56321;47.662;8.878;2023-03-14T11:28:01;0.82;;;0.10;;
69207;SDS011;56321;47.662;8.878;2023-03-14T11:33:21;0.20;;;0.00;;
69207;SDS011;56321;47.662;8.878;2023-03-14T11:38:28;0.20;;;0.00;;
69207;SDS011;56321;47.662;8.878;2023-03-14T11:40:56;1.45;;;0.00;;
69207;SDS011;56321;47.662;8.878;2023-03-14T11:48:55;1.20;;;0.00;;
69207;SDS011;56321;47.662;8.878;2023-03-14T11:51:30;0.70;;;0.00;;
69207;SDS011;56321;47.662;8.878;2023-03-14T11:56:35;0.10;;;0.00;;
69207;SDS011;56321;47.662;8.878;2023-03-14T11:59:09;0.55;;;0.00;;
69207;SDS011;56321;47.662;8.878;2023-03-14T12:04:22;0.90;;;0.00;;
69207;SDS011;56321;47.662;8.878;2023-03-14T12:06:54;1.20;;;0.10;;
69207;SDS011;56321;47.662;8.878;2023-03-14T12:09:22;0.80;;;0.00;;
69207;SDS011;56321;47.662;8.878;2023-03-14T12:16:59;0.80;;;0.10;;
69207;SDS011;56321;47.662;8.878;2023-03-14T12:19:29;0.20;;;0.00;;
69207;SDS011;56321;47.662;8.878;2023-03-14T12:24:49;0.80;;;0.10;;
69207;SDS011;56321;47.662;8.878;2023-03-14T12:30:15;0.37;;;0.00;;
69207;SDS011;56321;47.662;8.878;2023-03-14T12:35:46;1.10;;;0.00;;
69207;SDS011;56321;47.662;8.878;2023-03-14T12:38:58;0.73;;;0.10;;
69207;SDS011;56321;47.662;8.878;2023-03-14T12:43:54;1.17;;;0.10;;
69207;SDS011;56321;47.662;8.878;2023-03-14T12:46:26;0.87;;;0.00;;
69207;SDS011;56321;47.662;8.878;2023-03-14T12:51:36;0.35;;;0.08;;
69207;SDS011;56321;47.662;8.878;2023-03-14T12:54:10;0.65;;;0.05;;
69207;SDS011;56321;47.662;8.878;2023-03-14T12:59:55;1.38;;;0.13;;
69207;SDS011;56321;47.662;8.878;2023-03-14T13:02:23;1.20;;;0.10;;
69207;SDS011;56321;47.662;8.878;2023-03-14T13:08:20;1.85;;;0.10;;
69207;SDS011;56321;47.662;8.878;2023-03-14T13:10:24;1.58;;;0.13;;
69207;SDS011;56321;47.662;8.878;2023-03-14T13:15:39;1.43;;;0.13;;
69207;SDS011;56321;47.662;8.878;2023-03-14T13:18:16;1.88;;;0.22;;
69207;SDS011;56321;47.662;8.878;2023-03-14T13:20:50;1.25;;;0.10;;
69207;SDS011;56321;47.662;8.878;2023-03-14T13:23:22;2.10;;;0.20;;
69207;SDS011;56321;47.662;8.878;2023-03-14T13:25:52;2.78;;;0.20;;
69207;SDS011;56321;47.662;8.878;2023-03-14T13:28:18;2.50;;;0.20;;
69207;SDS011;56321;47.662;8.878;2023-03-14T13:30:45;2.75;;;0.20;;
69207;SDS011;56321;47.662;8.878;2023-03-14T13:33:12;3.17;;;0.30;;
69207;SDS011;56321;47.662;8.878;2023-03-14T13:35:42;3.13;;;0.30;;
69207;SDS011;56321;47.662;8.878;2023-03-14T13:38:15;2.42;;;0.30;;
69207;SDS011;56321;47.662;8.878;2023-03-14T13:40:43;1.30;;;0.20;;
69207;SDS011;56321;47.662;8.878;2023-03-14T13:43:17;3.08;;;0.20;;
69207;SDS011;56321;47.662;8.878;2023-03-14T13:45:53;3.22;;;0.20;;
69207;SDS011;56321;47.662;8.878;2023-03-14T13:48:21;3.10;;;0.20;;
69207;SDS011;56321;47.662;8.878;2023-03-14T13:50:51;1.73;;;0.20;;
69207;SDS011;56321;47.662;8.878;2023-03-14T13:53:19;2.43;;;0.20;;
69207;SDS011;56321;47.662;8.878;2023-03-14T13:55:44;3.13;;;0.30;;
69207;SDS011;56321;47.662;8.878;2023-03-14T13:58:20;2.70;;;0.17;;
69207;SDS011;56321;47.662;8.878;2023-03-14T14:00:58;2.10;;;0.20;;
69207;SDS011;56321;47.662;8.878;2023-03-14T14:03:26;4.05;;;0.28;;
69207;SDS011;56321;47.662;8.878;2023-03-14T14:05:53;2.40;;;0.30;;
69207;SDS011;56321;47.662;8.878;2023-03-14T14:08:20;3.30;;;0.30;;
69207;SDS011;56321;47.662;8.878;2023-03-14T14:10:46;3.47;;;0.30;;
69207;SDS011;56321;47.662;8.878;2023-03-14T14:13:13;4.03;;;0.30;;
69207;SDS011;56321;47.662;8.878;2023-03-14T14:15:44;2.35;;;0.30;;
69207;SDS011;56321;47.662;8.878;2023-03-14T14:18:12;2.63;;;0.30;;
69207;SDS011;56321;47.662;8.878;2023-03-14T14:20:41;4.43;;;0.28;;
69207;SDS011;56321;47.662;8.878;2023-03-14T14:23:12;4.30;;;0.30;;
69207;SDS011;56321;47.662;8.878;2023-03-14T14:25:40;3.53;;;0.22;;
69207;SDS011;56321;47.662;8.878;2023-03-14T14:28:15;2.15;;;0.20;;
69207;SDS011;56321;47.662;8.878;2023-03-14T14:30:40;3.83;;;0.30;;
69207;SDS011;56321;47.662;8.878;2023-03-14T14:33:18;3.80;;;0.30;;
69207;SDS011;56321;47.662;8.878;2023-03-14T14:35:53;3.35;;;0.30;;
69207;SDS011;56321;47.662;8.878;2023-03-14T14:38:21;3.80;;;0.20;;
69207;SDS011;56321;47.662;8.878;2023-03-14T14:40:48;3.45;;;0.20;;
69207;SDS011;56321;47.662;8.878;2023-03-14T14:43:17;3.83;;;0.30;;
69207;SDS011;56321;47.662;8.878;2023-03-14T14:45:47;4.27;;;0.20;;
69207;SDS011;56321;47.662;8.878;2023-03-14T14:48:15;2.67;;;0.28;;
69207;SDS011;56321;47.662;8.878;2023-03-14T14:56:13;3.15;;;0.30;;
69207;SDS011;56321;47.662;8.878;2023-03-14T14:58:43;5.17;;;0.40;;
69207;SDS011;56321;47.662;8.878;2023-03-14T15:03:41;3.22;;;0.20;;
69207;SDS011;56321;47.662;8.878;2023-03-14T15:06:08;3.60;;;0.40;;
69207;SDS011;56321;47.662;8.878;2023-03-14T15:08:36;4.13;;;0.22;;
69207;SDS011;56321;47.662;8.878;2023-03-14T15:11:02;3.60;;;0.30;;
69207;SDS011;56321;47.662;8.878;2023-03-14T15:13:27;3.42;;;0.38;;
69207;SDS011;56321;47.662;8.878;2023-03-14T15:15:52;2.70;;;0.30;;
69207;SDS011;56321;47.662;8.878;2023-03-14T15:18:21;3.65;;;0.20;;
69207;SDS011;56321;47.662;8.878;2023-03-14T15:20:49;2.87;;;0.30;;
69207;SDS011;56321;47.662;8.878;2023-03-14T15:23:15;4.72;;;0.20;;
69207;SDS011;56321;47.662;8.878;2023-03-14T15:25:42;4.07;;;0.40;;
69207;SDS011;56321;47.662;8.878;2023-03-14T15:28:20;3.70;;;0.30;;
69207;SDS011;56321;47.662;8.878;2023-03-14T15:30:47;3.92;;;0.30;;
69207;SDS011;56321;47.662;8.878;2023-03-14T15:33:14;4.45;;;0.50;;
69207;SDS011;56321;47.662;8.878;2023-03-14T15:35:39;3.20;;;0.38;;
69207;SDS011;56321;47.662;8.878;2023-03-14T15:38:09;4.50;;;0.30;;
69207;SDS011;56321;47.662;8.878;2023-03-14T15:40:35;5.57;;;0.30;;
69207;SDS011;56321;47.662;8.878;2023-03-14T15:43:01;4.13;;;0.30;;
69207;SDS011;56321;47.662;8.878;2023-03-14T15:45:26;4.37;;;0.30;;
69207;SDS011;56321;47.662;8.878;2023-03-14T15:47:51;3.87;;;0.30;;
69207;SDS011;56321;47.662;8.878;2023-03-14T15:50:16;3.17;;;0.23;;
69207;SDS011;56321;47.662;8.878;2023-03-14T15:52:43;4.85;;;0.30;;
69207;SDS011;56321;47.662;8.878;2023-03-14T15:55:09;3.30;;;0.30;;
69207;SDS011;56321;47.662;8.878;2023-03-14T15:57:34;2.77;;;0.30;;
69207;SDS011;56321;47.662;8.878;2023-03-14T16:00:00;3.53;;;0.30;;
69207;SDS011;56321;47.662;8.878;2023-03-14T16:02:25;3.45;;;0.32;;
69207;SDS011;56321;47.662;8.878;2023-03-14T16:04:51;4.27;;;0.40;;
69207;SDS011;56321;47.662;8.878;2023-03-14T16:07:17;2.42;;;0.25;;
69207;SDS011;56321;47.662;8.878;2023-03-14T16:09:42;3.33;;;0.30;;
69207;SDS011;56321;47.662;8.878;2023-03-14T16:12:07;6.63;;;0.30;;
69207;SDS011;56321;47.662;8.878;2023-03-14T16:14:33;5.03;;;0.40;;
69207;SDS011;56321;47.662;8.878;2023-03-14T16:16:59;4.17;;;0.60;;